Time;durP1;ratioP1;P1;durP2;ratioP2;P2;SDS_P1;SDS_P2;PMS_P1;PMS_P2;Temp;Humidity;BMP_temperature;BMP_pressure;BME280_temperature;BME280_humidity;BME280_pressure;Samples;Min_cycle;Max_cycle;Signal;HPM_P1;HPM_P2
2023/09/19 00:01:13;;;;;;;3.22;1.70;;;21.60;76.00;;;;;;10456087;28;20036;-55
2023/09/19 00:06:15;;;;;;;2.78;1.60;;;21.60;76.00;;;;;;10455379;28;20116;-56
2023/09/19 00:11:16;;;;;;;3.15;1.60;;;21.60;75.90;;;;;;10473185;28;20049;-56
2023/09/19 00:16:18;;;;;;;3.17;1.40;;;21.60;76.00;;;;;;10474554;28;20056;-56
2023/09/19 00:21:20;;;;;;;2.63;1.50;;;21.60;76.00;;;;;;10496585;28;20064;-57
2023/09/19 00:26:21;;;;;;;4.20;1.80;;;21.60;76.00;;;;;;10496116;28;20040;-56
2023/09/19 00:31:25;;;;;;;3.88;1.75;;;21.60;76.00;;;;;;10468975;28;20029;-56
2023/09/19 00:36:26;;;;;;;2.00;1.50;;;21.60;76.00;;;;;;10454260;28;20032;-55
2023/09/19 00:41:30;;;;;;;2.10;1.23;;;21.50;75.90;;;;;;10454313;28;20036;-56
2023/09/19 00:46:32;;;;;;;2.92;1.38;;;21.60;76.00;;;;;;10453971;28;20029;-56
2023/09/19 00:51:35;;;;;;;2.53;1.40;;;21.60;75.90;;;;;;10473735;28;20368;-56
2023/09/19 00:56:37;;;;;;;2.40;1.38;;;21.60;76.00;;;;;;10461899;28;20103;-56
2023/09/19 01:01:39;;;;;;;3.10;1.40;;;21.50;75.90;;;;;;10480661;28;20040;-56
2023/09/19 01:06:40;;;;;;;3.72;1.63;;;21.50;75.90;;;;;;10494970;28;20083;-56
2023/09/19 01:11:44;;;;;;;4.75;2.13;;;21.50;75.90;;;;;;10494607;28;20071;-56
2023/09/19 01:17:02;;;;;;;3.00;1.27;;;21.50;75.90;;;;;;10492850;28;20098;-56
2023/09/19 01:22:54;;;;;;;2.20;1.05;;;21.50;75.90;;;;;;10452244;28;20079;-55
2023/09/19 01:28:13;;;;;;;4.20;1.67;;;21.50;75.90;;;;;;10454739;28;20353;-57
2023/09/19 01:33:14;;;;;;;2.50;1.40;;;21.50;75.90;;;;;;10457645;28;20510;-56
2023/09/19 01:38:15;;;;;;;2.17;1.40;;;21.50;75.90;;;;;;10451896;28;20048;-56
2023/09/19 01:43:32;;;;;;;2.53;1.50;;;21.50;75.80;;;;;;10452055;28;20072;-56
2023/09/19 01:48:58;;;;;;;2.78;1.42;;;21.50;75.80;;;;;;10473526;28;20021;-56
2023/09/19 01:54:16;;;;;;;3.03;1.45;;;21.40;75.80;;;;;;10492764;28;20028;-56
2023/09/19 01:59:27;;;;;;;5.90;1.50;;;21.50;75.80;;;;;;10492311;28;20024;-56
2023/09/19 02:04:28;;;;;;;3.05;1.90;;;21.40;75.70;;;;;;10492448;28;20111;-56
2023/09/19 02:09:29;;;;;;;2.58;1.48;;;21.40;75.60;;;;;;10460516;28;20048;-56
2023/09/19 02:14:30;;;;;;;3.50;1.27;;;21.40;75.70;;;;;;10455829;28;20375;-56
2023/09/19 02:19:33;;;;;;;3.03;1.15;;;21.50;75.60;;;;;;10456854;28;20500;-57
2023/09/19 02:24:35;;;;;;;3.28;1.60;;;21.40;75.60;;;;;;10450703;28;20411;-56
2023/09/19 02:29:35;;;;;;;2.90;1.30;;;21.40;75.50;;;;;;10462569;28;20052;-56
2023/09/19 02:34:36;;;;;;;3.67;1.92;;;21.40;75.50;;;;;;10450406;28;20728;-56
2023/09/19 02:39:37;;;;;;;2.80;1.40;;;21.40;75.50;;;;;;10448401;28;20036;-55
2023/09/19 02:44:38;;;;;;;3.45;1.48;;;21.40;75.50;;;;;;10448592;28;20028;-56
2023/09/19 02:49:38;;;;;;;3.38;1.88;;;21.40;75.50;;;;;;10449365;28;20032;-56
2023/09/19 02:54:39;;;;;;;3.40;1.90;;;21.40;75.50;;;;;;10449650;28;20090;-55
2023/09/19 02:59:42;;;;;;;3.33;1.30;;;21.40;75.50;;;;;;10449163;28;20399;-56
2023/09/19 03:04:42;;;;;;;3.22;1.38;;;21.40;75.40;;;;;;10449572;28;20124;-56
2023/09/19 03:09:44;;;;;;;4.30;1.40;;;21.40;75.50;;;;;;10449137;28;20024;-56
2023/09/19 03:14:45;;;;;;;3.78;1.50;;;21.40;75.40;;;;;;10455474;28;20021;-56
2023/09/19 03:19:47;;;;;;;4.32;1.67;;;21.40;75.40;;;;;;10498355;28;20106;-56
2023/09/19 03:24:48;;;;;;;3.38;2.08;;;21.40;75.40;;;;;;10498814;28;20107;-56
2023/09/19 03:29:48;;;;;;;2.85;1.30;;;21.30;75.30;;;;;;10493648;28;20029;-56
2023/09/19 03:34:49;;;;;;;3.40;1.77;;;21.30;75.30;;;;;;10459190;28;20056;-56
2023/09/19 03:39:50;;;;;;;4.60;1.70;;;21.30;75.30;;;;;;10466919;28;20054;-54
2023/09/19 03:44:52;;;;;;;4.75;3.47;;;21.30;75.30;;;;;;10469609;28;20033;-55
2023/09/19 03:49:52;;;;;;;6.10;3.33;;;21.40;75.60;;;;;;10467826;28;20020;-56
2023/09/19 03:54:53;;;;;;;3.63;2.67;;;21.40;75.60;;;;;;10465884;28;20025;-56
2023/09/19 03:59:54;;;;;;;5.68;4.40;;;21.50;75.60;;;;;;10475678;28;20040;-56
2023/09/19 04:04:54;;;;;;;3.80;2.92;;;21.50;75.50;;;;;;10470234;28;20407;-56
2023/09/19 04:09:55;;;;;;;3.67;2.10;;;21.40;75.50;;;;;;10466914;28;20040;-55
2023/09/19 04:14:59;;;;;;;5.63;2.92;;;21.50;75.40;;;;;;10467179;28;20348;-55
2023/09/19 04:20:00;;;;;;;2.78;2.42;;;21.40;75.40;;;;;;10457867;28;20036;-55
2023/09/19 04:25:01;;;;;;;4.43;2.83;;;21.40;75.20;;;;;;10455032;28;20119;-56
2023/09/19 04:30:10;;;;;;;4.07;2.78;;;21.40;75.20;;;;;;10466232;28;20116;-56
2023/09/19 04:35:11;;;;;;;3.13;2.63;;;21.30;75.20;;;;;;10471980;28;20741;-56
2023/09/19 04:40:17;;;;;;;3.10;2.10;;;21.40;75.20;;;;;;10495618;28;20032;-56
2023/09/19 04:45:19;;;;;;;3.75;2.67;;;21.30;75.10;;;;;;10495944;28;20111;-56
2023/09/19 04:50:26;;;;;;;3.78;2.80;;;21.30;75.10;;;;;;10494838;28;20028;-55
2023/09/19 04:55:27;;;;;;;4.72;2.72;;;21.30;75.00;;;;;;10459198;28;20040;-56
2023/09/19 05:00:30;;;;;;;5.35;2.35;;;21.30;75.00;;;;;;10453523;28;20032;-56
2023/09/19 05:05:31;;;;;;;7.07;3.50;;;21.30;74.90;;;;;;10453788;28;20491;-55
2023/09/19 05:10:32;;;;;;;4.55;2.47;;;21.40;74.80;;;;;;10473993;28;20032;-55
2023/09/19 05:15:35;;;;;;;7.03;2.85;;;21.50;74.50;;;;;;10492452;28;20597;-57
2023/09/19 05:20:37;;;;;;;7.40;2.80;;;21.50;74.70;;;;;;10464065;28;20029;-57
2023/09/19 05:25:40;;;;;;;7.07;3.05;;;21.50;74.20;;;;;;10452827;28;20025;-57
2023/09/19 05:30:43;;;;;;;19.42;3.35;;;21.50;74.50;;;;;;10464635;28;20021;-58
2023/09/19 05:35:43;;;;;;;8.55;2.70;;;21.60;74.70;;;;;;10452749;28;20035;-56
2023/09/19 05:40:45;;;;;;;26.17;4.05;;;21.50;74.20;;;;;;10449613;28;20117;-58
2023/09/19 05:45:46;;;;;;;15.38;3.70;;;21.50;74.60;;;;;;10451687;28;20037;-56
2023/09/19 05:50:48;;;;;;;13.73;2.97;;;21.50;74.40;;;;;;10450808;28;20025;-56
2023/09/19 05:55:49;;;;;;;9.90;3.20;;;21.50;74.50;;;;;;10451751;28;20388;-56
2023/09/19 06:00:50;;;;;;;10.90;3.55;;;21.50;74.50;;;;;;10451030;28;20021;-57
2023/09/19 06:05:52;;;;;;;13.48;2.90;;;21.50;74.40;;;;;;10451069;28;20043;-56
2023/09/19 06:10:53;;;;;;;12.18;3.22;;;21.50;74.50;;;;;;10450258;28;20029;-57
2023/09/19 06:15:59;;;;;;;24.77;3.40;;;21.50;74.40;;;;;;10467348;28;20035;-55
2023/09/19 06:21:07;;;;;;;12.02;2.83;;;21.50;74.30;;;;;;10491402;28;20024;-58
2023/09/19 06:26:08;;;;;;;14.13;3.28;;;21.40;74.50;;;;;;10491853;28;20041;-56
2023/09/19 06:31:09;;;;;;;8.43;3.85;;;21.30;74.60;;;;;;10468207;28;20512;-56
2023/09/19 06:36:11;;;;;;;7.95;2.40;;;21.30;74.70;;;;;;10472461;28;20621;-57
2023/09/19 06:41:12;;;;;;;8.63;2.15;;;21.30;74.60;;;;;;10468727;28;20040;-57
2023/09/19 06:46:13;;;;;;;6.45;2.72;;;21.30;74.60;;;;;;10471953;28;20033;-57
2023/09/19 06:51:16;;;;;;;9.75;2.72;;;21.30;74.50;;;;;;10462077;28;20033;-57
2023/09/19 06:56:17;;;;;;;6.75;1.90;;;21.30;74.60;;;;;;10465621;28;20021;-57
2023/09/19 07:01:18;;;;;;;5.45;2.08;;;21.20;74.50;;;;;;10467390;28;20041;-57
2023/09/19 07:06:19;;;;;;;6.88;2.00;;;21.20;74.50;;;;;;10475623;28;20043;-57
2023/09/19 07:11:21;;;;;;;6.70;2.13;;;21.20;74.50;;;;;;10462345;28;20042;-57
2023/09/19 07:16:29;;;;;;;7.55;3.00;;;21.20;74.40;;;;;;10463652;28;20053;-57
2023/09/19 07:21:32;;;;;;;4.85;2.00;;;21.20;75.00;;;;;;10489400;28;20059;-57
2023/09/19 07:26:33;;;;;;;5.05;1.88;;;21.20;74.50;;;;;;10467412;28;20115;-57
2023/09/19 07:31:34;;;;;;;5.40;1.88;;;21.20;74.50;;;;;;10468675;28;20032;-55
2023/09/19 07:36:37;;;;;;;5.18;2.28;;;21.20;74.40;;;;;;10464685;28;20028;-57
2023/09/19 07:41:37;;;;;;;4.78;1.70;;;21.20;74.40;;;;;;10473056;28;20118;-55
2023/09/19 07:46:38;;;;;;;5.10;2.00;;;21.20;74.30;;;;;;10459720;28;20085;-56
2023/09/19 07:51:40;;;;;;;4.85;1.60;;;21.20;74.40;;;;;;10461237;28;20492;-57
2023/09/19 07:56:41;;;;;;;4.00;1.70;;;21.20;74.50;;;;;;10463912;28;20103;-63
2023/09/19 08:01:44;;;;;;;3.47;1.50;;;21.30;74.40;;;;;;10468985;28;20025;-57
2023/09/19 08:06:45;;;;;;;5.35;1.52;;;21.20;74.20;;;;;;10496670;28;20028;-56
2023/09/19 08:11:46;;;;;;;3.83;1.27;;;21.30;74.20;;;;;;10459264;28;20090;-57
2023/09/19 08:16:47;;;;;;;5.00;1.80;;;21.30;74.10;;;;;;10465418;28;20040;-57
2023/09/19 08:21:48;;;;;;;4.82;1.88;;;21.30;74.10;;;;;;10495889;28;20035;-57
2023/09/19 08:26:48;;;;;;;5.45;1.70;;;21.30;73.80;;;;;;10487896;28;20036;-57
2023/09/19 08:31:50;;;;;;;5.35;1.98;;;21.30;73.80;;;;;;10472955;28;20025;-56
2023/09/19 08:36:56;;;;;;;5.30;1.98;;;21.30;73.70;;;;;;10454371;28;20032;-57
2023/09/19 08:42:01;;;;;;;4.22;1.98;;;21.40;74.10;;;;;;10454058;28;20045;-56
2023/09/19 08:47:21;;;;;;;4.75;1.50;;;21.40;73.90;;;;;;10480849;28;20497;-56
2023/09/19 08:52:36;;;;;;;3.88;1.55;;;21.40;73.50;;;;;;10457227;28;20033;-58
2023/09/19 08:57:41;;;;;;;5.15;1.80;;;21.40;74.10;;;;;;10480745;28;20487;-57
2023/09/19 09:02:43;;;;;;;4.85;2.05;;;21.40;73.40;;;;;;10464762;28;20036;-57
2023/09/19 09:07:44;;;;;;;7.25;2.13;;;21.40;73.40;;;;;;10472564;28;20486;-57
2023/09/19 09:12:45;;;;;;;6.35;2.42;;;21.40;73.50;;;;;;10492123;28;20028;-57
2023/09/19 09:17:48;;;;;;;6.45;1.83;;;21.40;73.50;;;;;;10491458;28;20098;-57
2023/09/19 09:22:54;;;;;;;5.30;1.65;;;21.40;73.40;;;;;;10492047;28;20028;-57
2023/09/19 09:28:01;;;;;;;6.45;2.08;;;21.40;73.30;;;;;;10494300;28;20107;-57
2023/09/19 09:33:14;;;;;;;4.47;1.63;;;21.40;73.30;;;;;;10459128;28;20045;-57
2023/09/19 09:38:18;;;;;;;6.13;1.60;;;21.40;73.20;;;;;;10451416;28;20057;-57
2023/09/19 09:43:38;;;;;;;4.65;1.92;;;21.40;73.30;;;;;;10450737;28;20056;-58
2023/09/19 09:48:39;;;;;;;;;;;21.40;73.20;;;;;;10451860;28;20039;-57
2023/09/19 09:53:40;;;;;;;7.80;2.63;;;21.50;73.10;;;;;;10450410;28;19915;-57
2023/09/19 09:58:56;;;;;;;4.10;1.88;;;21.50;73.10;;;;;;10480523;28;20036;-57
2023/09/19 10:04:00;;;;;;;5.88;1.95;;;21.50;73.00;;;;;;10491316;28;20028;-56
2023/09/19 10:09:29;;;;;;;5.15;2.05;;;21.50;72.90;;;;;;10490883;28;20040;-57
2023/09/19 10:14:34;;;;;;;4.30;1.80;;;21.60;72.80;;;;;;10458228;28;20532;-56
2023/09/19 10:19:59;;;;;;;4.25;1.38;;;21.60;72.60;;;;;;10483009;28;20067;-57
2023/09/19 10:25:03;;;;;;;4.50;1.40;;;21.60;72.70;;;;;;10490317;28;20036;-57
2023/09/19 10:30:07;;;;;;;3.70;1.33;;;21.60;72.60;;;;;;10466373;28;20033;-58
2023/09/19 10:35:08;;;;;;;4.10;1.58;;;21.60;72.40;;;;;;10447962;28;20123;-56
2023/09/19 10:40:11;;;;;;;4.55;1.70;;;21.60;72.50;;;;;;10468668;28;20438;-57
2023/09/19 10:45:15;;;;;;;3.67;1.45;;;21.70;72.50;;;;;;10489427;28;20040;-57
2023/09/19 10:50:23;;;;;;;6.80;1.95;;;21.60;72.40;;;;;;10490228;28;20035;-56
2023/09/19 10:55:28;;;;;;;7.28;2.10;;;21.60;72.20;;;;;;10489546;28;20032;-57
2023/09/19 11:00:34;;;;;;;4.55;1.90;;;21.60;72.00;;;;;;10451859;28;20124;-57
2023/09/19 11:05:37;;;;;;;4.28;2.42;;;21.60;71.90;;;;;;10448267;28;20040;-57
2023/09/19 11:10:50;;;;;;;5.00;1.73;;;21.60;71.50;;;;;;10448444;28;20025;-58
2023/09/19 11:16:04;;;;;;;5.57;2.13;;;21.60;71.40;;;;;;10450340;28;20059;-57
2023/09/19 11:21:31;;;;;;;5.68;2.08;;;21.50;71.30;;;;;;10485463;28;20036;-57
2023/09/19 11:26:48;;;;;;;4.97;1.77;;;21.50;71.30;;;;;;10451588;28;20035;-56
2023/09/19 11:31:49;;;;;;;5.85;1.83;;;21.60;71.40;;;;;;10464231;28;20032;-57
2023/09/19 11:36:50;;;;;;;3.88;1.45;;;21.60;70.90;;;;;;10473606;28;20142;-57
2023/09/19 11:41:56;;;;;;;5.03;2.05;;;21.50;70.90;;;;;;10459103;28;20025;-57
2023/09/19 11:46:58;;;;;;;4.72;1.67;;;21.60;71.50;;;;;;10456268;28;20184;-57
2023/09/19 11:52:04;;;;;;;4.07;1.75;;;21.60;71.30;;;;;;10456566;28;20102;-57
2023/09/19 11:57:07;;;;;;;6.13;1.83;;;21.70;71.40;;;;;;10455964;28;20031;-57
2023/09/19 12:02:11;;;;;;;3.17;1.63;;;21.60;71.20;;;;;;10456060;28;20032;-57
2023/09/19 12:07:16;;;;;;;7.05;2.88;;;21.60;71.30;;;;;;10492225;28;20059;-57
2023/09/19 12:12:20;;;;;;;5.88;2.00;;;21.60;71.40;;;;;;10455404;28;20029;-57
2023/09/19 12:17:24;;;;;;;4.90;2.00;;;21.60;71.40;;;;;;10457820;28;20049;-58
2023/09/19 12:22:25;;;;;;;4.90;1.90;;;21.70;71.50;;;;;;10455335;28;20029;-57
2023/09/19 12:27:27;;;;;;;4.80;1.70;;;21.70;71.30;;;;;;10454628;28;20033;-59
2023/09/19 12:32:35;;;;;;;5.00;1.45;;;21.70;71.10;;;;;;10483277;28;20036;-57
2023/09/19 12:37:37;;;;;;;3.10;1.63;;;21.60;71.00;;;;;;10470986;28;20039;-57
2023/09/19 12:42:38;;;;;;;5.05;2.25;;;21.60;70.90;;;;;;10468288;28;20020;-58
2023/09/19 12:47:40;;;;;;;6.10;1.85;;;21.50;70.00;;;;;;10453572;28;20135;-62
2023/09/19 12:53:00;;;;;;;5.07;1.70;;;21.60;69.10;;;;;;10491153;28;20039;-58
2023/09/19 12:58:12;;;;;;;4.07;1.70;;;21.50;68.00;;;;;;10495059;28;20032;-58
2023/09/19 13:03:22;;;;;;;7.93;2.85;;;21.50;68.50;;;;;;10495235;28;20033;-58
2023/09/19 13:08:41;;;;;;;5.50;1.92;;;21.50;70.10;;;;;;10494316;28;20051;-58
2023/09/19 13:14:15;;;;;;;6.30;1.92;;;21.40;70.10;;;;;;10494774;28;20123;-60
2023/09/19 13:19:41;;;;;;;8.02;2.22;;;21.50;70.20;;;;;;10479355;28;20622;-58
2023/09/19 13:24:42;;;;;;;3.90;1.55;;;21.50;70.10;;;;;;10485334;28;20040;-59
2023/09/19 13:29:43;;;;;;;6.93;2.33;;;21.50;70.20;;;;;;10471833;28;20025;-56
2023/09/19 13:34:43;;;;;;;5.72;1.52;;;21.50;70.80;;;;;;10469718;28;20037;-57
2023/09/19 13:39:47;;;;;;;4.10;1.92;;;21.50;70.30;;;;;;10465503;28;20039;-57
2023/09/19 13:44:48;;;;;;;6.07;2.20;;;21.50;69.80;;;;;;10468123;28;20045;-56
2023/09/19 13:49:50;;;;;;;5.38;1.27;;;21.50;69.50;;;;;;10463394;28;20396;-56
2023/09/19 13:54:52;;;;;;;3.40;1.30;;;21.60;69.20;;;;;;10465149;28;20053;-56
2023/09/19 13:59:54;;;;;;;7.97;1.67;;;21.50;69.20;;;;;;10468167;28;20029;-55
2023/09/19 14:04:55;;;;;;;4.85;1.23;;;21.50;69.50;;;;;;10491032;28;20032;-57
2023/09/19 14:09:55;;;;;;;3.53;1.33;;;21.50;69.70;;;;;;10490999;28;20480;-55
2023/09/19 14:14:56;;;;;;;6.53;1.45;;;21.50;69.70;;;;;;10482035;28;20036;-55
2023/09/19 14:19:57;;;;;;;3.72;1.50;;;21.50;69.80;;;;;;10449161;28;20045;-55
2023/09/19 14:24:59;;;;;;;5.55;1.67;;;21.50;69.90;;;;;;10470647;28;20035;-56
2023/09/19 14:30:00;;;;;;;3.97;1.25;;;21.50;70.00;;;;;;10463474;28;20376;-56
2023/09/19 14:35:01;;;;;;;3.40;1.45;;;21.40;70.20;;;;;;10473118;28;20027;-56
2023/09/19 14:40:03;;;;;;;2.35;1.20;;;21.40;70.20;;;;;;10460524;28;20033;-55
2023/09/19 14:45:05;;;;;;;5.40;1.95;;;21.40;70.10;;;;;;10458276;28;20025;-55
2023/09/19 14:50:07;;;;;;;9.60;1.58;;;21.50;70.20;;;;;;10465865;28;20045;-54
2023/09/19 14:55:14;;;;;;;10.13;1.85;;;21.60;70.10;;;;;;10464194;28;20102;-55
2023/09/19 15:00:16;;;;;;;9.70;2.03;;;21.50;70.30;;;;;;10471138;28;20488;-55
2023/09/19 15:05:17;;;;;;;5.00;1.65;;;21.50;70.30;;;;;;10469883;28;20063;-56
2023/09/19 15:10:18;;;;;;;3.83;1.83;;;21.40;70.40;;;;;;10460233;28;20220;-55
2023/09/19 15:15:19;;;;;;;4.53;1.40;;;21.40;70.50;;;;;;10474108;28;20058;-54
2023/09/19 15:20:19;;;;;;;4.65;1.65;;;21.40;70.60;;;;;;10467860;28;20111;-55
2023/09/19 15:25:20;;;;;;;6.60;1.58;;;21.40;70.70;;;;;;10481730;28;20032;-55
2023/09/19 15:30:21;;;;;;;6.63;1.65;;;21.30;70.70;;;;;;10483065;28;20032;-55
2023/09/19 15:35:22;;;;;;;4.00;1.10;;;21.30;70.80;;;;;;10482613;28;20670;-55
2023/09/19 15:40:24;;;;;;;7.57;1.95;;;21.30;70.80;;;;;;10465757;28;20029;-55
2023/09/19 15:45:25;;;;;;;4.15;1.60;;;21.30;70.80;;;;;;10474320;28;20033;-55
2023/09/19 15:50:26;;;;;;;2.40;1.25;;;21.30;70.80;;;;;;10496608;28;20032;-55
2023/09/19 15:55:26;;;;;;;3.85;1.58;;;21.30;70.90;;;;;;10471476;28;20041;-55
2023/09/19 16:00:27;;;;;;;2.45;1.13;;;21.30;71.10;;;;;;10482050;28;20036;-55
2023/09/19 16:05:36;;;;;;;2.78;1.38;;;21.30;70.90;;;;;;10465569;28;20666;-54
2023/09/19 16:10:37;;;;;;;2.92;1.00;;;21.30;71.20;;;;;;10466486;28;20079;-55
2023/09/19 16:15:44;;;;;;;4.07;1.05;;;21.30;71.20;;;;;;10472161;28;20040;-56
2023/09/19 16:20:45;;;;;;;8.98;1.35;;;21.30;71.60;;;;;;10469389;28;20116;-57
2023/09/19 16:25:47;;;;;;;6.85;2.13;;;21.40;71.80;;;;;;10477478;28;20033;-57
2023/09/19 16:30:47;;;;;;;3.65;1.20;;;21.50;73.20;;;;;;10480967;28;20483;-57
2023/09/19 16:35:48;;;;;;;7.85;1.77;;;21.70;72.60;;;;;;10471029;28;20027;-58
2023/09/19 16:40:55;;;;;;;4.68;1.92;;;21.70;72.60;;;;;;10478678;28;20035;-57
2023/09/19 16:46:05;;;;;;;9.02;2.13;;;21.70;72.40;;;;;;10462865;28;20090;-57
2023/09/19 16:51:09;;;;;;;5.72;1.58;;;21.70;71.80;;;;;;10483253;28;20033;-57
2023/09/19 16:56:17;;;;;;;7.47;2.10;;;21.70;72.40;;;;;;10467971;28;20070;-55
2023/09/19 17:01:19;;;;;;;8.52;3.38;;;21.80;71.90;;;;;;10470445;28;20052;-55
2023/09/19 17:06:21;;;;;;;6.45;1.60;;;21.80;72.30;;;;;;10474980;28;20108;-55
2023/09/19 17:11:23;;;;;;;9.48;2.13;;;21.80;72.10;;;;;;10470039;28;20500;-55
2023/09/19 17:16:25;;;;;;;4.30;1.30;;;21.70;72.70;;;;;;10469152;28;20120;-55
2023/09/19 17:21:26;;;;;;;5.93;1.48;;;21.60;72.70;;;;;;10468583;28;20468;-55
2023/09/19 17:26:28;;;;;;;5.53;1.50;;;21.60;72.70;;;;;;10475777;28;20090;-53
2023/09/19 17:31:29;;;;;;;5.97;2.47;;;21.50;72.70;;;;;;10484043;28;20040;-55
2023/09/19 17:36:32;;;;;;;5.00;1.35;;;21.50;72.80;;;;;;10462170;28;20025;-55
2023/09/19 17:41:32;;;;;;;4.50;1.35;;;21.40;73.00;;;;;;10464447;28;20032;-54
2023/09/19 17:46:36;;;;;;;6.00;1.60;;;21.40;73.10;;;;;;10452454;28;20570;-56
2023/09/19 17:51:36;;;;;;;4.55;1.35;;;21.40;73.00;;;;;;10467373;28;20108;-54
2023/09/19 17:56:39;;;;;;;7.97;2.35;;;21.40;72.80;;;;;;10464011;28;20609;-54
2023/09/19 18:01:43;;;;;;;7.72;2.22;;;21.40;72.80;;;;;;10492786;28;20388;-53
2023/09/19 18:06:44;;;;;;;6.80;2.38;;;21.40;72.90;;;;;;10458704;28;20115;-55
2023/09/19 18:11:45;;;;;;;3.53;1.95;;;21.30;72.80;;;;;;10450905;28;20040;-56
2023/09/19 18:16:47;;;;;;;6.50;1.35;;;21.30;72.70;;;;;;10461781;28;20395;-55
2023/09/19 18:21:48;;;;;;;4.53;1.90;;;21.40;72.80;;;;;;10492126;28;20509;-54
2023/09/19 18:26:49;;;;;;;8.65;2.30;;;21.30;72.80;;;;;;10466141;28;20035;-56
2023/09/19 18:31:49;;;;;;;3.13;1.48;;;21.30;72.90;;;;;;10470482;28;20035;-55
2023/09/19 18:36:50;;;;;;;2.78;1.30;;;21.30;72.80;;;;;;10450623;28;20047;-55
2023/09/19 18:41:51;;;;;;;5.13;1.38;;;21.30;72.80;;;;;;10450418;28;20468;-54
2023/09/19 18:46:52;;;;;;;8.57;1.80;;;21.30;72.80;;;;;;10450476;28;20059;-55
2023/09/19 18:51:53;;;;;;;3.60;1.33;;;21.30;72.90;;;;;;10450346;28;20090;-56
2023/09/19 18:56:54;;;;;;;2.45;1.30;;;21.30;72.80;;;;;;10455411;28;20024;-54
2023/09/19 19:01:55;;;;;;;3.63;1.45;;;21.30;72.80;;;;;;10451766;28;20044;-56
2023/09/19 19:06:56;;;;;;;5.10;1.33;;;21.30;72.70;;;;;;10450184;28;20511;-56
2023/09/19 19:11:56;;;;;;;4.13;1.15;;;21.40;72.70;;;;;;10458304;28;20040;-55
2023/09/19 19:16:58;;;;;;;4.10;1.48;;;21.30;73.00;;;;;;10461701;28;20049;-55
2023/09/19 19:21:59;;;;;;;7.35;1.90;;;21.30;72.90;;;;;;10490733;28;20494;-56
2023/09/19 19:27:00;;;;;;;3.10;1.23;;;21.30;72.80;;;;;;10463212;28;20052;-55
2023/09/19 19:32:01;;;;;;;3.90;1.25;;;21.30;72.80;;;;;;10461478;28;20040;-55
2023/09/19 19:37:03;;;;;;;4.88;1.73;;;21.30;73.10;;;;;;10449253;28;20391;-55
2023/09/19 19:42:05;;;;;;;3.33;1.88;;;21.20;73.00;;;;;;10449489;28;20338;-55
2023/09/19 19:47:06;;;;;;;3.25;1.30;;;21.20;73.90;;;;;;10454554;28;20040;-55
2023/09/19 19:52:06;;;;;;;4.40;1.60;;;21.20;73.40;;;;;;10464151;28;20060;-55
2023/09/19 19:57:07;;;;;;;5.70;1.67;;;21.20;73.40;;;;;;10465325;28;20422;-54
2023/09/19 20:02:08;;;;;;;2.63;1.45;;;21.20;73.40;;;;;;10470436;28;20032;-56
2023/09/19 20:07:10;;;;;;;5.30;1.67;;;21.20;73.50;;;;;;10481366;28;20584;-56
2023/09/19 20:12:11;;;;;;;2.85;1.33;;;21.20;73.40;;;;;;10497174;28;20037;-56
2023/09/19 20:17:12;;;;;;;4.63;1.42;;;21.20;73.30;;;;;;10469962;28;20037;-55
2023/09/19 20:22:13;;;;;;;6.63;1.73;;;21.20;73.30;;;;;;10455728;28;20033;-55
2023/09/19 20:27:14;;;;;;;3.78;1.40;;;21.20;73.20;;;;;;10455441;28;20025;-56
2023/09/19 20:32:17;;;;;;;3.33;1.33;;;21.10;73.30;;;;;;10468469;28;20376;-56
2023/09/19 20:37:18;;;;;;;2.83;1.45;;;21.10;73.30;;;;;;10455187;28;20044;-56
2023/09/19 20:42:21;;;;;;;2.75;1.50;;;21.10;73.20;;;;;;10454620;28;20036;-56
2023/09/19 20:47:22;;;;;;;5.22;2.28;;;21.10;73.10;;;;;;10454888;28;20182;-56
2023/09/19 20:52:24;;;;;;;4.72;1.48;;;21.10;73.30;;;;;;10455237;28;20083;-56
2023/09/19 20:57:24;;;;;;;1.88;1.08;;;21.10;73.00;;;;;;10458407;28;20506;-56
2023/09/19 21:02:25;;;;;;;2.92;1.63;;;21.10;73.10;;;;;;10453895;28;20039;-56
2023/09/19 21:07:29;;;;;;;4.10;1.25;;;21.10;73.10;;;;;;10479916;28;20032;-56
2023/09/19 21:12:29;;;;;;;2.55;1.23;;;21.10;73.10;;;;;;10494764;28;20063;-57
2023/09/19 21:17:30;;;;;;;8.70;1.40;;;21.10;73.30;;;;;;10464961;28;20059;-56
2023/09/19 21:22:31;;;;;;;4.97;2.28;;;21.10;73.40;;;;;;10453197;28;20025;-56
2023/09/19 21:27:32;;;;;;;2.30;1.20;;;21.10;73.30;;;;;;10453158;28;20021;-56
2023/09/19 21:32:34;;;;;;;3.38;1.77;;;21.10;73.40;;;;;;10463843;28;20383;-56
2023/09/19 21:37:34;;;;;;;1.63;1.08;;;21.10;73.30;;;;;;10452953;28;20036;-56
2023/09/19 21:42:35;;;;;;;2.65;1.35;;;21.10;73.30;;;;;;10452138;28;20467;-56
2023/09/19 21:47:36;;;;;;;2.38;1.25;;;21.10;73.00;;;;;;10452345;28;20033;-56
2023/09/19 21:52:36;;;;;;;4.50;1.77;;;21.00;73.00;;;;;;10451892;28;20040;-56
2023/09/19 21:57:37;;;;;;;2.67;1.10;;;21.00;73.00;;;;;;10452147;28;20071;-56
2023/09/19 22:02:38;;;;;;;4.15;1.85;;;21.00;73.00;;;;;;10451601;28;20082;-56
2023/09/19 22:07:39;;;;;;;2.65;1.30;;;21.00;73.00;;;;;;10451799;28;20040;-55
2023/09/19 22:12:39;;;;;;;4.68;1.48;;;21.00;73.00;;;;;;10469718;28;20051;-55
2023/09/19 22:17:41;;;;;;;2.83;1.05;;;21.00;72.90;;;;;;10461478;28;20041;-55
2023/09/19 22:22:42;;;;;;;3.00;1.63;;;21.00;73.10;;;;;;10450399;28;20025;-56
2023/09/19 22:27:43;;;;;;;2.35;1.05;;;21.00;73.10;;;;;;10450210;28;20066;-56
2023/09/19 22:32:45;;;;;;;2.78;1.35;;;21.00;72.90;;;;;;10463088;28;20021;-55
2023/09/19 22:37:48;;;;;;;2.05;1.15;;;21.00;73.10;;;;;;10483065;28;20032;-54
2023/09/19 22:42:49;;;;;;;3.15;1.20;;;21.00;73.20;;;;;;10491428;28;20525;-56
2023/09/19 22:47:50;;;;;;;3.58;1.35;;;21.00;73.30;;;;;;10491545;28;20066;-55
2023/09/19 22:53:02;;;;;;;2.08;1.30;;;21.00;73.30;;;;;;10491281;28;20036;-56
2023/09/19 22:58:03;;;;;;;4.05;1.40;;;21.00;73.30;;;;;;10491092;28;20036;-56
2023/09/19 23:03:28;;;;;;;2.40;1.40;;;21.00;73.30;;;;;;10490985;28;20032;-55
2023/09/19 23:08:26;;;;;;;2.60;1.33;;;21.00;73.30;;;;;;10490782;28;20556;-56
2023/09/19 23:13:31;;;;;;;1.88;1.35;;;21.00;73.10;;;;;;10490750;28;20094;-56
2023/09/19 23:18:33;;;;;;;2.88;1.65;;;21.00;73.30;;;;;;10452724;28;20045;-56
2023/09/19 23:23:34;;;;;;;3.33;1.60;;;21.00;73.20;;;;;;10449186;28;20453;-56
2023/09/19 23:28:42;;;;;;;1.60;1.35;;;20.90;73.10;;;;;;10466845;28;20033;-56
2023/09/19 23:33:43;;;;;;;2.97;1.60;;;21.00;73.10;;;;;;10452537;28;20399;-56
2023/09/19 23:38:46;;;;;;;3.50;1.52;;;21.00;73.10;;;;;;10457857;28;20033;-56
2023/09/19 23:43:50;;;;;;;2.13;1.52;;;21.00;73.20;;;;;;10456763;28;20056;-56
2023/09/19 23:48:51;;;;;;;2.60;1.08;;;21.00;73.20;;;;;;10457183;28;20025;-56
2023/09/19 23:53:51;;;;;;;3.42;1.20;;;20.90;73.00;;;;;;10456772;28;20055;-56
2023/09/19 23:58:53;;;;;;;4.10;1.77;;;21.00;73.20;;;;;;10456706;28;20033;-56
